Time;durP1;ratioP1;P1;durP2;ratioP2;P2;SDS_P1;SDS_P2;PMS_P1;PMS_P2;Temp;Humidity;BMP_temperature;BMP_pressure;BME280_temperature;BME280_humidity;BME280_pressure;Samples;Min_cycle;Max_cycle;Signal;HPM_P1;HPM_P2
2021/04/23 00:00:45;;;;;;;4.82;2.38;;;;;;;;;;5114727;28;20224;-42
2021/04/23 00:03:20;;;;;;;3.22;2.35;;;;;;;;;;5115293;28;20173;-43
2021/04/23 00:05:46;;;;;;;4.40;2.15;;;;;;;;;;5115173;28;20458;-40
2021/04/23 00:08:14;;;;;;;4.80;2.30;;;;;;;;;;5114453;28;20253;-40
2021/04/23 00:10:40;;;;;;;3.58;2.35;;;;;;;;;;5102573;28;20246;-40
2021/04/23 00:13:06;;;;;;;3.15;2.28;;;;;;;;;;5114865;28;20185;-40
2021/04/23 00:15:33;;;;;;;3.08;2.10;;;;;;;;;;5115290;28;20240;-40
2021/04/23 00:18:00;;;;;;;4.82;2.10;;;;;;;;;;5114805;28;20185;-40
2021/04/23 00:20:27;;;;;;;3.80;2.38;;;;;;;;;;5114660;28;20422;-40
2021/04/23 00:22:57;;;;;;;2.47;2.05;;;;;;;;;;5114691;28;20263;-40
2021/04/23 00:25:26;;;;;;;2.50;1.90;;;;;;;;;;5112753;28;20173;-40
2021/04/23 00:27:56;;;;;;;3.05;1.92;;;;;;;;;;5102500;28;20188;-40
2021/04/23 00:30:26;;;;;;;2.67;1.95;;;;;;;;;;5114597;28;20214;-40
2021/04/23 00:32:56;;;;;;;4.78;2.30;;;;;;;;;;5114248;28;20181;-40
2021/04/23 00:35:23;;;;;;;2.15;1.88;;;;;;;;;;5097165;28;20209;-40
2021/04/23 00:37:49;;;;;;;2.88;1.90;;;;;;;;;;5114254;28;20177;-40
2021/04/23 00:40:17;;;;;;;3.22;1.80;;;;;;;;;;5114645;28;20185;-40
2021/04/23 00:42:43;;;;;;;2.55;1.98;;;;;;;;;;5113857;28;20177;-40
2021/04/23 00:45:10;;;;;;;3.67;2.05;;;;;;;;;;5115136;28;20189;-40
2021/04/23 00:47:36;;;;;;;3.35;2.03;;;;;;;;;;5114532;28;20173;-40
2021/04/23 00:50:02;;;;;;;2.70;1.85;;;;;;;;;;5114492;28;20189;-40
2021/04/23 00:52:28;;;;;;;2.28;1.85;;;;;;;;;;5114239;28;20169;-40
2021/04/23 00:54:54;;;;;;;3.15;2.00;;;;;;;;;;5109592;28;20549;-40
2021/04/23 00:57:20;;;;;;;2.30;1.60;;;;;;;;;;5112944;28;20185;-40
2021/04/23 00:59:46;;;;;;;3.47;2.00;;;;;;;;;;5104932;28;20310;-40
2021/04/23 01:02:15;;;;;;;2.15;1.88;;;;;;;;;;5113836;28;20207;-40
2021/04/23 01:04:41;;;;;;;2.30;1.80;;;;;;;;;;5118102;28;20868;-40
2021/04/23 01:07:07;;;;;;;3.95;2.03;;;;;;;;;;5118111;28;20201;-40
2021/04/23 01:09:33;;;;;;;1.98;1.65;;;;;;;;;;5118165;28;20172;-40
2021/04/23 01:12:00;;;;;;;2.97;1.75;;;;;;;;;;5117572;28;20244;-40
2021/04/23 01:14:26;;;;;;;3.25;1.98;;;;;;;;;;5118586;28;20184;-40
2021/04/23 01:16:53;;;;;;;2.38;1.90;;;;;;;;;;5118493;28;20173;-40
2021/04/23 01:19:20;;;;;;;2.60;1.90;;;;;;;;;;5118407;28;20653;-40
2021/04/23 01:21:47;;;;;;;2.42;1.83;;;;;;;;;;5109339;28;20211;-40
2021/04/23 01:24:13;;;;;;;4.45;1.70;;;;;;;;;;5117992;28;20621;-40
2021/04/23 01:26:44;;;;;;;2.92;2.13;;;;;;;;;;5117809;28;20228;-40
2021/04/23 01:29:12;;;;;;;2.63;1.60;;;;;;;;;;5118163;28;20215;-40
2021/04/23 01:31:39;;;;;;;3.20;1.75;;;;;;;;;;5117529;28;20504;-40
2021/04/23 01:34:07;;;;;;;2.35;1.80;;;;;;;;;;5118075;28;20195;-40
2021/04/23 01:36:33;;;;;;;2.28;1.98;;;;;;;;;;5117692;28;20181;-40
2021/04/23 01:39:00;;;;;;;2.60;1.85;;;;;;;;;;5117514;28;20512;-40
2021/04/23 01:41:26;;;;;;;2.13;1.80;;;;;;;;;;5109136;28;20202;-40
2021/04/23 01:43:52;;;;;;;1.80;1.70;;;;;;;;;;5117928;28;20212;-40
2021/04/23 01:46:18;;;;;;;3.10;1.98;;;;;;;;;;5118094;28;20165;-40
2021/04/23 01:48:44;;;;;;;2.40;1.80;;;;;;;;;;5116114;28;20177;-40
2021/04/23 01:51:12;;;;;;;1.88;1.40;;;;;;;;;;5113016;28;20173;-40
2021/04/23 01:53:38;;;;;;;3.17;1.83;;;;;;;;;;5117142;28;20233;-40
2021/04/23 01:56:05;;;;;;;2.75;1.80;;;;;;;;;;5113370;28;20181;-40
2021/04/23 01:58:32;;;;;;;1.70;1.55;;;;;;;;;;5117587;28;20185;-40
2021/04/23 02:00:59;;;;;;;1.70;1.60;;;;;;;;;;5116675;28;20228;-40
2021/04/23 02:03:26;;;;;;;2.22;1.70;;;;;;;;;;5117332;28;20197;-40
2021/04/23 02:05:54;;;;;;;1.88;1.50;;;;;;;;;;5117532;28;20560;-40
2021/04/23 02:08:22;;;;;;;1.70;1.60;;;;;;;;;;5117064;28;20181;-40
2021/04/23 02:10:55;;;;;;;2.70;1.80;;;;;;;;;;5108995;28;20189;-40
2021/04/23 02:13:22;;;;;;;2.35;1.70;;;;;;;;;;5096761;28;20180;-40
2021/04/23 02:15:49;;;;;;;1.77;1.35;;;;;;;;;;5107441;28;20184;-40
2021/04/23 02:18:15;;;;;;;1.73;1.58;;;;;;;;;;5117092;28;20527;-40
2021/04/23 02:20:41;;;;;;;2.08;1.50;;;;;;;;;;5116625;28;20279;-40
2021/04/23 02:23:09;;;;;;;1.60;1.50;;;;;;;;;;5112888;28;20541;-40
2021/04/23 02:25:36;;;;;;;1.63;1.52;;;;;;;;;;5116965;28;20177;-40
2021/04/23 02:28:03;;;;;;;1.90;1.70;;;;;;;;;;5117101;28;20201;-40
2021/04/23 02:30:34;;;;;;;2.05;1.70;;;;;;;;;;5116490;28;20568;-40
2021/04/23 02:33:00;;;;;;;2.17;1.85;;;;;;;;;;5116731;28;20218;-40
2021/04/23 02:35:27;;;;;;;2.50;1.65;;;;;;;;;;5116752;28;20192;-40
2021/04/23 02:37:54;;;;;;;2.25;1.88;;;;;;;;;;5115901;28;20180;-40
2021/04/23 02:40:21;;;;;;;1.92;1.73;;;;;;;;;;5116444;28;20557;-40
2021/04/23 02:42:49;;;;;;;2.05;1.50;;;;;;;;;;5115650;28;20183;-40
2021/04/23 02:45:16;;;;;;;2.30;1.50;;;;;;;;;;5115949;28;20185;-40
2021/04/23 02:47:43;;;;;;;1.52;1.35;;;;;;;;;;5115502;28;20254;-40
2021/04/23 02:50:11;;;;;;;2.25;1.65;;;;;;;;;;5116728;28;20705;-40
2021/04/23 02:52:37;;;;;;;1.75;1.48;;;;;;;;;;5115021;28;20173;-40
2021/04/23 02:55:04;;;;;;;1.80;1.38;;;;;;;;;;5098715;28;20184;-40
2021/04/23 02:57:30;;;;;;;2.78;1.70;;;;;;;;;;5115855;28;20180;-40
2021/04/23 02:59:56;;;;;;;2.92;1.67;;;;;;;;;;5116622;28;20170;-40
2021/04/23 03:02:22;;;;;;;1.58;1.38;;;;;;;;;;5116048;28;20204;-40
2021/04/23 03:04:50;;;;;;;1.50;1.40;;;;;;;;;;5116389;28;20200;-40
2021/04/23 03:07:18;;;;;;;2.45;1.65;;;;;;;;;;5112114;28;20518;-40
2021/04/23 03:09:44;;;;;;;1.98;1.50;;;;;;;;;;5115986;28;20187;-40
2021/04/23 03:12:10;;;;;;;1.73;1.58;;;;;;;;;;5115217;28;20597;-40
2021/04/23 03:14:37;;;;;;;2.40;1.33;;;;;;;;;;5116304;28;20552;-40
2021/04/23 03:17:03;;;;;;;1.58;1.23;;;;;;;;;;5116036;28;20229;-40
2021/04/23 03:19:29;;;;;;;2.20;1.48;;;;;;;;;;5113548;28;20480;-40
2021/04/23 03:21:54;;;;;;;1.75;1.40;;;;;;;;;;5106753;28;20213;-40
2021/04/23 03:24:21;;;;;;;2.20;1.63;;;;;;;;;;5107447;28;20181;-40
2021/04/23 03:26:47;;;;;;;1.77;1.40;;;;;;;;;;5114974;28;20448;-40
2021/04/23 03:29:14;;;;;;;2.17;1.45;;;;;;;;;;5116145;28;20430;-40
2021/04/23 03:31:41;;;;;;;2.58;1.50;;;;;;;;;;5115350;28;20235;-40
2021/04/23 03:34:07;;;;;;;1.50;1.40;;;;;;;;;;5104614;28;20177;-40
2021/04/23 03:36:33;;;;;;;2.05;1.30;;;;;;;;;;5111445;28;20250;-40
2021/04/23 03:38:59;;;;;;;1.50;1.40;;;;;;;;;;5108753;28;20185;-40
2021/04/23 03:41:29;;;;;;;1.40;1.27;;;;;;;;;;5115036;28;20196;-40
2021/04/23 03:43:55;;;;;;;1.40;1.25;;;;;;;;;;5115657;28;20183;-40
2021/04/23 03:46:21;;;;;;;2.28;1.50;;;;;;;;;;5115636;28;20232;-40
2021/04/23 03:48:47;;;;;;;1.42;1.30;;;;;;;;;;5114671;28;20485;-40
2021/04/23 03:51:14;;;;;;;2.28;1.50;;;;;;;;;;5115104;28;20260;-40
2021/04/23 03:53:41;;;;;;;1.88;1.45;;;;;;;;;;5115138;28;20184;-40
2021/04/23 03:56:07;;;;;;;2.05;1.35;;;;;;;;;;5115438;28;20188;-40
2021/04/23 03:58:34;;;;;;;1.85;1.20;;;;;;;;;;5115389;28;20366;-40
2021/04/23 04:01:08;;;;;;;1.42;1.25;;;;;;;;;;5114811;28;20226;-40
2021/04/23 04:03:36;;;;;;;1.52;1.27;;;;;;;;;;5114712;28;20184;-40
2021/04/23 04:06:02;;;;;;;1.20;1.10;;;;;;;;;;5115296;28;20196;-40
2021/04/23 04:08:28;;;;;;;2.10;1.55;;;;;;;;;;5114849;28;20176;-40
2021/04/23 04:10:54;;;;;;;2.17;1.38;;;;;;;;;;5114991;28;20173;-40
2021/04/23 04:13:20;;;;;;;1.92;1.38;;;;;;;;;;5115621;28;20179;-40
2021/04/23 04:15:46;;;;;;;1.65;1.40;;;;;;;;;;5112772;28;20812;-40
2021/04/23 04:18:12;;;;;;;1.75;1.60;;;;;;;;;;5113554;28;20181;-40
2021/04/23 04:20:40;;;;;;;1.48;1.33;;;;;;;;;;5114520;28;20208;-40
2021/04/23 04:23:07;;;;;;;1.65;1.27;;;;;;;;;;5115122;28;20225;-40
2021/04/23 04:25:37;;;;;;;1.90;1.40;;;;;;;;;;5114900;28;20353;-40
2021/04/23 04:28:03;;;;;;;2.08;1.48;;;;;;;;;;5115182;28;20176;-40
2021/04/23 04:30:29;;;;;;;1.70;1.30;;;;;;;;;;5112884;28;20188;-40
2021/04/23 04:32:56;;;;;;;1.30;1.20;;;;;;;;;;5115302;28;20225;-40
2021/04/23 04:35:23;;;;;;;1.63;1.20;;;;;;;;;;5114818;28;20251;-40
2021/04/23 04:37:50;;;;;;;1.45;1.30;;;;;;;;;;5117187;28;20622;-40
2021/04/23 04:40:17;;;;;;;1.23;1.02;;;;;;;;;;5119133;28;20180;-40
2021/04/23 04:42:43;;;;;;;1.40;1.13;;;;;;;;;;5118897;28;20181;-40
2021/04/23 04:45:11;;;;;;;1.45;1.30;;;;;;;;;;5113149;28;20561;-40
2021/04/23 04:47:37;;;;;;;1.75;1.27;;;;;;;;;;5104297;28;20523;-40
2021/04/23 04:50:05;;;;;;;1.88;1.42;;;;;;;;;;5105452;28;20181;-40
2021/04/23 04:52:31;;;;;;;1.45;1.35;;;;;;;;;;5118526;28;20699;-40
2021/04/23 04:54:58;;;;;;;1.45;1.35;;;;;;;;;;5116862;28;20196;-40
2021/04/23 04:57:24;;;;;;;1.50;1.33;;;;;;;;;;5118643;28;20177;-40
2021/04/23 04:59:50;;;;;;;1.52;1.40;;;;;;;;;;5115141;28;20230;-40
2021/04/23 05:02:16;;;;;;;2.30;1.42;;;;;;;;;;5117703;28;20228;-40
2021/04/23 05:04:43;;;;;;;1.67;1.55;;;;;;;;;;5117701;28;20177;-40
2021/04/23 05:07:09;;;;;;;1.63;1.52;;;;;;;;;;5117476;28;20246;-40
2021/04/23 05:09:35;;;;;;;2.17;1.75;;;;;;;;;;5117720;28;20191;-40
2021/04/23 05:12:01;;;;;;;1.55;1.42;;;;;;;;;;5117155;28;20169;-39
2021/04/23 05:14:27;;;;;;;1.60;1.50;;;;;;;;;;5118055;28;20208;-40
2021/04/23 05:16:53;;;;;;;3.50;2.05;;;;;;;;;;5118250;28;20187;-40
2021/04/23 05:19:20;;;;;;;1.67;1.58;;;;;;;;;;5117849;28;20259;-39
2021/04/23 05:21:46;;;;;;;1.70;1.60;;;;;;;;;;5116805;28;20226;-40
2021/04/23 05:24:13;;;;;;;1.95;1.70;;;;;;;;;;5117635;28;20177;-40
2021/04/23 05:26:39;;;;;;;2.45;1.60;;;;;;;;;;5113236;28;20166;-39
2021/04/23 05:29:05;;;;;;;1.60;1.50;;;;;;;;;;5097953;28;20174;-40
2021/04/23 05:31:32;;;;;;;1.85;1.40;;;;;;;;;;5117285;28;20177;-40
2021/04/23 05:33:57;;;;;;;1.70;1.60;;;;;;;;;;5117939;28;20172;-40
2021/04/23 05:36:24;;;;;;;1.85;1.63;;;;;;;;;;5117873;28;20263;-40
2021/04/23 05:38:50;;;;;;;2.17;1.60;;;;;;;;;;5098906;28;20183;-40
2021/04/23 05:41:16;;;;;;;1.73;1.55;;;;;;;;;;5115784;28;20192;-40
2021/04/23 05:43:44;;;;;;;1.70;1.60;;;;;;;;;;5103990;28;20260;-40
2021/04/23 05:46:11;;;;;;;1.80;1.52;;;;;;;;;;5116744;28;20570;-40
2021/04/23 05:48:37;;;;;;;2.47;1.85;;;;;;;;;;5116691;28;20181;-40
2021/04/23 05:51:03;;;;;;;1.58;1.48;;;;;;;;;;5113853;28;20180;-40
2021/04/23 05:53:30;;;;;;;1.73;1.63;;;;;;;;;;5117869;28;20716;-40
2021/04/23 05:55:56;;;;;;;3.33;1.83;;;;;;;;;;5116741;28;20208;-40
2021/04/23 05:58:22;;;;;;;1.88;1.65;;;;;;;;;;5116979;28;20197;-40
2021/04/23 06:00:48;;;;;;;1.70;1.60;;;;;;;;;;5116291;28;20581;-40
2021/04/23 06:03:15;;;;;;;1.65;1.55;;;;;;;;;;5117479;28;20195;-40
2021/04/23 06:05:41;;;;;;;3.28;1.98;;;;;;;;;;5116334;28;20250;-40
2021/04/23 06:08:08;;;;;;;2.67;2.10;;;;;;;;;;5117537;28;20536;-40
2021/04/23 06:10:34;;;;;;;2.00;1.80;;;;;;;;;;5115896;28;20189;-40
2021/04/23 06:13:01;;;;;;;2.03;1.63;;;;;;;;;;5117467;28;20169;-41
2021/04/23 06:15:27;;;;;;;4.07;1.70;;;;;;;;;;5116995;28;20256;-39
2021/04/23 06:17:54;;;;;;;2.88;1.83;;;;;;;;;;5117338;28;20169;-41
2021/04/23 06:20:23;;;;;;;5.20;2.25;;;;;;;;;;5117142;28;20495;-41
2021/04/23 06:22:50;;;;;;;7.18;2.22;;;;;;;;;;5114098;28;20182;-40
2021/04/23 06:25:17;;;;;;;2.75;1.83;;;;;;;;;;5113790;28;20166;-41
2021/04/23 06:27:43;;;;;;;2.95;1.90;;;;;;;;;;5117183;28;20547;-41
2021/04/23 06:30:11;;;;;;;2.20;2.00;;;;;;;;;;5117159;28;20165;-40
2021/04/23 06:32:41;;;;;;;2.40;1.90;;;;;;;;;;5116679;28;20177;-40
2021/04/23 06:35:08;;;;;;;2.00;1.80;;;;;;;;;;5116677;28;20264;-41
2021/04/23 06:37:34;;;;;;;3.47;2.03;;;;;;;;;;5115672;28;20208;-40
2021/04/23 06:40:00;;;;;;;3.45;1.77;;;;;;;;;;5116621;28;20529;-39
2021/04/23 06:42:26;;;;;;;5.00;1.83;;;;;;;;;;5116047;28;20469;-39
2021/04/23 06:44:52;;;;;;;4.13;2.25;;;;;;;;;;5116652;28;20184;-42
2021/04/23 06:47:18;;;;;;;6.03;2.25;;;;;;;;;;5116693;28;20177;-43
2021/04/23 06:49:44;;;;;;;8.07;2.03;;;;;;;;;;5116244;28;20177;-40
2021/04/23 06:52:10;;;;;;;5.70;1.95;;;;;;;;;;5103581;28;20181;-40
2021/04/23 06:54:36;;;;;;;3.17;1.90;;;;;;;;;;5106129;28;20205;-40
2021/04/23 06:57:02;;;;;;;4.30;2.20;;;;;;;;;;5115576;28;20268;-40
2021/04/23 06:59:28;;;;;;;3.85;2.17;;;;;;;;;;5115771;28;20495;-40
2021/04/23 07:01:54;;;;;;;4.78;1.95;;;;;;;;;;5114018;28;20209;-40
2021/04/23 07:04:21;;;;;;;3.25;1.65;;;;;;;;;;5115549;28;20177;-40
2021/04/23 07:06:47;;;;;;;3.47;1.85;;;;;;;;;;5115742;28;20220;-40
2021/04/23 07:09:17;;;;;;;2.70;1.70;;;;;;;;;;5095917;28;20209;-40
2021/04/23 07:11:43;;;;;;;6.65;1.90;;;;;;;;;;5095001;28;20528;-40
2021/04/23 07:14:09;;;;;;;4.20;1.90;;;;;;;;;;5095784;28;20189;-40
2021/04/23 07:16:35;;;;;;;4.10;1.92;;;;;;;;;;5096091;28;20173;-40
2021/04/23 07:19:01;;;;;;;1.73;1.58;;;;;;;;;;5095932;28;20170;-40
2021/04/23 07:21:27;;;;;;;3.67;2.00;;;;;;;;;;5095101;28;20198;-39
2021/04/23 07:23:53;;;;;;;4.53;2.10;;;;;;;;;;5095705;28;20162;-38
2021/04/23 07:26:19;;;;;;;2.10;1.90;;;;;;;;;;5114605;28;20244;-39
2021/04/23 07:28:45;;;;;;;2.72;1.60;;;;;;;;;;5116116;28;20192;-39
2021/04/23 07:31:11;;;;;;;4.32;1.83;;;;;;;;;;5115603;28;20516;-39
2021/04/23 07:33:37;;;;;;;4.57;1.92;;;;;;;;;;5103960;28;20184;-39
2021/04/23 07:36:04;;;;;;;6.15;2.20;;;;;;;;;;5095544;28;20169;-39
2021/04/23 07:38:30;;;;;;;8.00;1.83;;;;;;;;;;5095496;28;20227;-39
2021/04/23 07:40:57;;;;;;;3.45;1.92;;;;;;;;;;5095821;28;20827;-39
2021/04/23 07:43:23;;;;;;;4.68;1.80;;;;;;;;;;5095127;28;20182;-39
2021/04/23 07:45:49;;;;;;;5.88;1.80;;;;;;;;;;5095390;28;20480;-39
2021/04/23 07:48:15;;;;;;;4.18;2.20;;;;;;;;;;5095399;28;20240;-39
2021/04/23 07:50:41;;;;;;;6.05;2.13;;;;;;;;;;5107505;28;20205;-39
2021/04/23 07:53:07;;;;;;;8.23;4.40;;;;;;;;;;5115644;28;20207;-39
2021/04/23 07:55:34;;;;;;;22.45;11.23;;;;;;;;;;5115502;28;20610;-39
2021/04/23 07:58:00;;;;;;;22.35;10.85;;;;;;;;;;5114883;28;20533;-39
2021/04/23 08:00:26;;;;;;;22.88;10.27;;;;;;;;;;5109595;28;20429;-39
2021/04/23 08:02:54;;;;;;;20.10;9.48;;;;;;;;;;5114896;28;20248;-39
2021/04/23 08:05:21;;;;;;;20.88;7.53;;;;;;;;;;5115019;28;20173;-39
2021/04/23 08:07:47;;;;;;;14.10;6.80;;;;;;;;;;5114262;28;20232;-40
2021/04/23 08:10:14;;;;;;;13.68;7.32;;;;;;;;;;5113681;28;20627;-40
2021/04/23 08:12:41;;;;;;;16.92;7.63;;;;;;;;;;5113240;28;20185;-39
2021/04/23 08:15:08;;;;;;;20.08;6.43;;;;;;;;;;5099204;28;20173;-39
2021/04/23 08:17:34;;;;;;;18.48;7.22;;;;;;;;;;5113362;28;20195;-39
2021/04/23 08:20:00;;;;;;;17.25;6.63;;;;;;;;;;5113965;28;20188;-39
2021/04/23 08:22:27;;;;;;;15.13;6.68;;;;;;;;;;5112827;28;20284;-39
2021/04/23 08:24:53;;;;;;;15.27;6.35;;;;;;;;;;5114591;28;20192;-39
2021/04/23 08:27:19;;;;;;;13.55;6.07;;;;;;;;;;5115167;28;20208;-39
2021/04/23 08:29:45;;;;;;;13.18;5.70;;;;;;;;;;5110744;28;20603;-39
2021/04/23 08:32:11;;;;;;;16.23;5.55;;;;;;;;;;5111300;28;20183;-39
2021/04/23 08:34:37;;;;;;;12.38;5.00;;;;;;;;;;5115201;28;20165;-39
2021/04/23 08:37:03;;;;;;;14.05;5.72;;;;;;;;;;5114681;28;20189;-39
2021/04/23 08:39:29;;;;;;;14.40;5.28;;;;;;;;;;5105643;28;20226;-39
2021/04/23 08:41:55;;;;;;;11.10;5.15;;;;;;;;;;5094080;28;20198;-39
2021/04/23 08:44:21;;;;;;;13.90;4.93;;;;;;;;;;5096965;28;20177;-39
2021/04/23 08:46:47;;;;;;;12.57;4.55;;;;;;;;;;5107643;28;20444;-40
2021/04/23 08:49:17;;;;;;;13.95;4.82;;;;;;;;;;5094872;28;20166;-39
2021/04/23 08:51:43;;;;;;;12.45;4.38;;;;;;;;;;5112679;28;20204;-39
2021/04/23 08:54:09;;;;;;;12.25;4.93;;;;;;;;;;5114509;28;20185;-39
2021/04/23 08:56:35;;;;;;;13.52;4.32;;;;;;;;;;5114578;28;20177;-39
2021/04/23 08:59:01;;;;;;;11.45;4.60;;;;;;;;;;5114501;28;20191;-40
2021/04/23 09:01:27;;;;;;;10.90;4.78;;;;;;;;;;5112884;28;20201;-39
2021/04/23 09:03:53;;;;;;;11.73;4.60;;;;;;;;;;5111851;28;20192;-39
2021/04/23 09:06:24;;;;;;;8.35;4.75;;;;;;;;;;5114134;28;20204;-39
2021/04/23 09:08:54;;;;;;;9.40;4.50;;;;;;;;;;5114222;28;20181;-39
2021/04/23 09:11:22;;;;;;;9.32;3.92;;;;;;;;;;5113147;28;20191;-39
2021/04/23 09:13:52;;;;;;;11.82;4.20;;;;;;;;;;5114373;28;20197;-39
2021/04/23 09:16:19;;;;;;;11.13;4.07;;;;;;;;;;5114878;28;20435;-39
2021/04/23 09:18:45;;;;;;;12.75;4.43;;;;;;;;;;5114285;28;20208;-39
2021/04/23 09:21:14;;;;;;;11.45;3.55;;;;;;;;;;5113001;28;20261;-39
2021/04/23 09:23:48;;;;;;;11.25;4.35;;;;;;;;;;5115101;28;20244;-40
2021/04/23 09:26:30;;;;;;;10.23;4.15;;;;;;;;;;5107309;28;20545;-39
2021/04/23 09:28:56;;;;;;;11.45;4.10;;;;;;;;;;5115740;28;20187;-39
2021/04/23 09:31:25;;;;;;;10.13;4.30;;;;;;;;;;5117514;28;20181;-39
2021/04/23 09:33:55;;;;;;;11.25;4.07;;;;;;;;;;5118239;28;20253;-40
2021/04/23 09:36:25;;;;;;;10.07;3.92;;;;;;;;;;5117540;28;20188;-39
2021/04/23 09:39:04;;;;;;;7.30;3.83;;;;;;;;;;5107963;28;20178;-39
2021/04/23 09:41:30;;;;;;;8.88;3.97;;;;;;;;;;5104744;28;20250;-40
2021/04/23 09:43:56;;;;;;;7.75;3.97;;;;;;;;;;5117606;28;20560;-39
2021/04/23 09:46:35;;;;;;;8.95;3.92;;;;;;;;;;5118154;28;20161;-39
2021/04/23 09:49:14;;;;;;;8.80;3.97;;;;;;;;;;5110035;28;20177;-40
2021/04/23 09:51:40;;;;;;;8.85;4.00;;;;;;;;;;5106015;28;20346;-39
2021/04/23 09:54:16;;;;;;;7.78;3.65;;;;;;;;;;5110826;28;20212;-39
2021/04/23 09:56:42;;;;;;;9.80;3.42;;;;;;;;;;5104146;28;20312;-40
2021/04/23 09:59:28;;;;;;;9.52;3.60;;;;;;;;;;5116265;28;20191;-41
2021/04/23 10:01:55;;;;;;;7.30;3.65;;;;;;;;;;5112164;28;20202;-39
2021/04/23 10:04:23;;;;;;;8.77;3.58;;;;;;;;;;5097743;28;20177;-40
2021/04/23 10:07:04;;;;;;;9.07;3.20;;;;;;;;;;5107418;28;20548;-40
2021/04/23 10:09:30;;;;;;;8.40;3.50;;;;;;;;;;5112602;28;20184;-39
2021/04/23 10:11:56;;;;;;;9.05;3.63;;;;;;;;;;5116640;28;20214;-41
2021/04/23 10:14:22;;;;;;;12.52;3.70;;;;;;;;;;5105967;28;20181;-41
2021/04/23 10:16:50;;;;;;;12.00;3.67;;;;;;;;;;5116522;28;20536;-41
2021/04/23 10:19:15;;;;;;;9.07;3.65;;;;;;;;;;5116501;28;20183;-41
2021/04/23 10:21:41;;;;;;;8.32;4.07;;;;;;;;;;5116161;28;20316;-41
2021/04/23 10:24:08;;;;;;;18.33;7.32;;;;;;;;;;5117172;28;20195;-38
2021/04/23 10:26:34;;;;;;;23.55;6.88;;;;;;;;;;5116688;28;20177;-40
2021/04/23 10:29:02;;;;;;;25.80;8.38;;;;;;;;;;5112265;28;20194;-39
2021/04/23 10:31:29;;;;;;;18.38;7.38;;;;;;;;;;5116678;28;20559;-40
2021/04/23 10:33:55;;;;;;;23.73;7.90;;;;;;;;;;5116770;28;20224;-40
2021/04/23 10:36:21;;;;;;;18.13;7.45;;;;;;;;;;5116683;28;20260;-40
2021/04/23 10:38:47;;;;;;;20.85;7.55;;;;;;;;;;5116291;28;20272;-41
2021/04/23 10:41:14;;;;;;;16.98;6.70;;;;;;;;;;5116017;28;20496;-42
2021/04/23 10:43:50;;;;;;;15.02;6.35;;;;;;;;;;5116062;28;20566;-41
2021/04/23 10:46:17;;;;;;;15.88;6.28;;;;;;;;;;5106648;28;20184;-40
2021/04/23 10:48:44;;;;;;;9.38;5.53;;;;;;;;;;5116648;28;20220;-40
2021/04/23 10:51:22;;;;;;;13.65;5.18;;;;;;;;;;5116138;28;20976;-39
2021/04/23 10:53:52;;;;;;;13.02;5.85;;;;;;;;;;5116241;28;20192;-41
2021/04/23 10:56:29;;;;;;;17.27;5.45;;;;;;;;;;5115344;28;20257;-41
2021/04/23 10:58:57;;;;;;;14.38;5.35;;;;;;;;;;5115133;28;20233;-41
2021/04/23 11:01:24;;;;;;;18.75;5.10;;;;;;;;;;5112295;28;20221;-41
2021/04/23 11:04:03;;;;;;;13.30;5.05;;;;;;;;;;5116287;28;20227;-41
2021/04/23 11:06:30;;;;;;;14.82;5.45;;;;;;;;;;5115941;28;20176;-41
2021/04/23 11:08:59;;;;;;;12.27;5.25;;;;;;;;;;5114202;28;20252;-43
2021/04/23 11:11:25;;;;;;;15.38;4.97;;;;;;;;;;5114063;28;20212;-43
2021/04/23 11:13:53;;;;;;;8.55;5.15;;;;;;;;;;5116049;28;20516;-43
2021/04/23 11:16:19;;;;;;;13.23;4.80;;;;;;;;;;5116257;28;20170;-43
2021/04/23 11:19:04;;;;;;;10.50;4.13;;;;;;;;;;5116171;28;20185;-43
2021/04/23 11:21:37;;;;;;;9.73;4.55;;;;;;;;;;5115235;28;20200;-43
2021/04/23 11:24:10;;;;;;;8.07;4.35;;;;;;;;;;5114406;28;20260;-41
2021/04/23 11:26:57;;;;;;;7.70;3.92;;;;;;;;;;5115504;28;20173;-41
2021/04/23 11:29:23;;;;;;;10.35;4.18;;;;;;;;;;5115333;28;20310;-41
2021/04/23 11:32:05;;;;;;;10.32;4.50;;;;;;;;;;5115448;28;20583;-41
2021/04/23 11:34:36;;;;;;;11.35;4.38;;;;;;;;;;5115896;28;20165;-41
2021/04/23 11:37:03;;;;;;;11.07;4.43;;;;;;;;;;5115873;28;20161;-41
2021/04/23 11:39:33;;;;;;;10.30;3.70;;;;;;;;;;5115291;28;20177;-41
2021/04/23 11:42:20;;;;;;;9.95;4.00;;;;;;;;;;5113524;28;20658;-41
2021/04/23 11:44:48;;;;;;;8.63;3.90;;;;;;;;;;5114993;28;20799;-41
2021/04/23 11:47:15;;;;;;;6.20;3.20;;;;;;;;;;5114343;28;20450;-41
2021/04/23 11:49:41;;;;;;;9.65;4.10;;;;;;;;;;5114923;28;20177;-41
2021/04/23 11:52:07;;;;;;;10.00;3.95;;;;;;;;;;5115213;28;20165;-41
2021/04/23 11:54:39;;;;;;;6.03;3.20;;;;;;;;;;5114657;28;20558;-41
2021/04/23 11:57:07;;;;;;;7.32;3.00;;;;;;;;;;5114733;28;20181;-41
2021/04/23 11:59:33;;;;;;;7.75;3.45;;;;;;;;;;5113183;28;20192;-41
2021/04/23 12:01:59;;;;;;;9.07;3.50;;;;;;;;;;5114968;28;20459;-41
2021/04/23 12:04:45;;;;;;;6.88;3.67;;;;;;;;;;5115219;28;20563;-41
2021/04/23 12:07:12;;;;;;;6.78;3.20;;;;;;;;;;5115087;28;20189;-41
2021/04/23 12:09:38;;;;;;;6.57;3.35;;;;;;;;;;5114488;28;20177;-41
2021/04/23 12:12:08;;;;;;;7.75;3.35;;;;;;;;;;5114338;28;20183;-41
2021/04/23 12:14:41;;;;;;;4.03;2.67;;;;;;;;;;5109709;28;20181;-41
2021/04/23 12:17:07;;;;;;;9.75;3.13;;;;;;;;;;5095090;28;20213;-41
2021/04/23 12:19:33;;;;;;;6.43;2.60;;;;;;;;;;5108234;28;20253;-41
2021/04/23 12:21:59;;;;;;;6.88;2.50;;;;;;;;;;5113666;28;20353;-43
2021/04/23 12:24:25;;;;;;;6.95;2.85;;;;;;;;;;5114649;28;20210;-41
2021/04/23 12:26:51;;;;;;;6.38;2.80;;;;;;;;;;5114014;28;20177;-41
2021/04/23 12:29:23;;;;;;;7.07;2.90;;;;;;;;;;5113998;28;20197;-41
2021/04/23 12:31:50;;;;;;;5.13;3.00;;;;;;;;;;5109305;28;20233;-41
2021/04/23 12:34:16;;;;;;;8.52;2.40;;;;;;;;;;5114716;28;20577;-41
2021/04/23 12:36:44;;;;;;;6.38;2.42;;;;;;;;;;5114386;28;20555;-41
2021/04/23 12:39:13;;;;;;;5.20;2.65;;;;;;;;;;5113957;28;20471;-41
2021/04/23 12:41:40;;;;;;;6.82;3.28;;;;;;;;;;5114080;28;20204;-41
2021/04/23 12:44:16;;;;;;;8.00;2.78;;;;;;;;;;5111752;28;20552;-41
2021/04/23 12:46:47;;;;;;;6.63;2.72;;;;;;;;;;5103956;28;20218;-41
2021/04/23 12:49:23;;;;;;;5.50;2.40;;;;;;;;;;5110316;28;20777;-41
2021/04/23 12:51:54;;;;;;;8.13;2.70;;;;;;;;;;5094517;28;20464;-41
2021/04/23 12:54:28;;;;;;;4.05;2.40;;;;;;;;;;5097178;28;20242;-41
2021/04/23 12:56:55;;;;;;;5.25;2.45;;;;;;;;;;5114477;28;20165;-41
2021/04/23 12:59:40;;;;;;;4.30;2.75;;;;;;;;;;5118066;28;20180;-41
2021/04/23 13:02:11;;;;;;;4.10;2.30;;;;;;;;;;5118301;28;20196;-41
2021/04/23 13:04:37;;;;;;;8.55;2.72;;;;;;;;;;5087743;28;20422;-41
2021/04/23 13:07:11;;;;;;;4.38;2.50;;;;;;;;;;5115106;28;20203;-41
2021/04/23 13:09:37;;;;;;;3.92;2.10;;;;;;;;;;5118199;28;20161;-41
2021/04/23 13:12:20;;;;;;;11.02;2.88;;;;;;;;;;5117640;28;20173;-41
2021/04/23 13:14:46;;;;;;;7.32;2.67;;;;;;;;;;5089681;28;20550;-41
2021/04/23 13:17:12;;;;;;;5.57;2.55;;;;;;;;;;5118180;28;20181;-41
2021/04/23 13:19:40;;;;;;;8.40;2.42;;;;;;;;;;5118549;28;20214;-41
2021/04/23 13:22:25;;;;;;;8.68;2.50;;;;;;;;;;5116842;28;20193;-41
2021/04/23 13:24:52;;;;;;;5.32;2.50;;;;;;;;;;5118341;28;20412;-41
2021/04/23 13:27:27;;;;;;;7.20;2.80;;;;;;;;;;5117986;28;20185;-43
2021/04/23 13:29:53;;;;;;;6.95;2.75;;;;;;;;;;5118515;28;20180;-43
2021/04/23 13:32:19;;;;;;;5.75;2.60;;;;;;;;;;5118055;28;20173;-43
2021/04/23 13:34:52;;;;;;;8.57;2.65;;;;;;;;;;5118333;28;20559;-43
2021/04/23 13:37:28;;;;;;;5.18;2.50;;;;;;;;;;5118503;28;20433;-41
2021/04/23 13:40:23;;;;;;;6.05;2.50;;;;;;;;;;5116729;28;20184;-41
2021/04/23 13:42:49;;;;;;;5.88;2.40;;;;;;;;;;5073933;28;20630;-41
2021/04/23 13:45:15;;;;;;;4.38;2.50;;;;;;;;;;5105984;28;20188;-41
2021/04/23 13:47:43;;;;;;;5.65;2.42;;;;;;;;;;5107391;28;20612;-41
2021/04/23 13:50:10;;;;;;;4.50;2.55;;;;;;;;;;5118184;28;20169;-41
2021/04/23 13:52:40;;;;;;;5.47;2.40;;;;;;;;;;5116512;28;20254;-41
2021/04/23 13:55:08;;;;;;;5.82;2.47;;;;;;;;;;5111457;28;20174;-41
2021/04/23 13:57:34;;;;;;;2.28;1.85;;;;;;;;;;5116939;28;20238;-41
2021/04/23 14:00:00;;;;;;;3.58;2.30;;;;;;;;;;5099390;28;20180;-41
2021/04/23 14:02:26;;;;;;;3.13;2.08;;;;;;;;;;5116883;28;20237;-41
2021/04/23 14:04:53;;;;;;;3.83;1.88;;;;;;;;;;5117755;28;20205;-41
2021/04/23 14:07:20;;;;;;;2.83;2.00;;;;;;;;;;5117810;28;20169;-41
2021/04/23 14:09:47;;;;;;;4.07;1.92;;;;;;;;;;5116688;28;20185;-41
2021/04/23 14:12:17;;;;;;;6.32;2.30;;;;;;;;;;5114902;28;20518;-41
2021/04/23 14:14:44;;;;;;;4.53;2.30;;;;;;;;;;5117318;28;20189;-41
2021/04/23 14:17:14;;;;;;;2.97;1.92;;;;;;;;;;5117295;28;20263;-41
2021/04/23 14:19:41;;;;;;;3.85;2.03;;;;;;;;;;5112764;28;20178;-41
2021/04/23 14:22:07;;;;;;;5.28;2.08;;;;;;;;;;5096524;28;20443;-41
2021/04/23 14:24:34;;;;;;;3.22;2.17;;;;;;;;;;5111672;28;20268;-41
2021/04/23 14:27:01;;;;;;;3.53;1.80;;;;;;;;;;5116579;28;20257;-41
2021/04/23 14:29:27;;;;;;;4.38;1.95;;;;;;;;;;5101632;28;20187;-41
2021/04/23 14:31:53;;;;;;;3.10;1.88;;;;;;;;;;5096191;28;20165;-41
2021/04/23 14:34:20;;;;;;;4.28;2.10;;;;;;;;;;5096917;28;20174;-41
2021/04/23 14:36:46;;;;;;;5.20;2.20;;;;;;;;;;5111668;28;20180;-41
2021/04/23 14:39:14;;;;;;;2.90;1.77;;;;;;;;;;5117158;28;20276;-41
2021/04/23 14:41:41;;;;;;;2.15;1.63;;;;;;;;;;5115960;28;20214;-41
2021/04/23 14:44:07;;;;;;;4.03;1.80;;;;;;;;;;5116546;28;20246;-41